Time;durP1;ratioP1;P1;durP2;ratioP2;P2;SDS_P1;SDS_P2;PMS_P1;PMS_P2;Temp;Humidity;BMP_temperature;BMP_pressure;BME280_temperature;BME280_humidity;BME280_pressure;Samples;Min_cycle;Max_cycle;Signal;HPM_P1;HPM_P2
2023/03/06 00:00:35;;;;;;;3.67;0.30;;;2.50;99.90;;;;;;4134139;28;20046;-82
2023/03/06 00:02:36;;;;;;;3.28;0.65;;;2.50;99.90;;;;;;4150197;28;20053;-82
2023/03/06 00:04:38;;;;;;;2.28;0.68;;;2.50;99.90;;;;;;4150572;28;20050;-82
2023/03/06 00:06:38;;;;;;;0.57;0.47;;;2.40;99.90;;;;;;4151149;28;20049;-83
2023/03/06 00:08:39;;;;;;;3.63;1.00;;;2.90;99.90;;;;;;4150070;28;20395;-82
2023/03/06 00:10:41;;;;;;;2.33;0.50;;;2.40;99.90;;;;;;4134202;28;20054;-82
2023/03/06 00:12:42;;;;;;;1.48;0.60;;;3.10;99.90;;;;;;4154646;28;20077;-82
2023/03/06 00:14:43;;;;;;;1.95;0.73;;;3.20;99.90;;;;;;4167769;28;20080;-83
2023/03/06 00:16:43;;;;;;;0.82;0.40;;;2.40;99.90;;;;;;4167192;28;20531;-83
2023/03/06 00:18:46;;;;;;;1.25;0.60;;;2.80;99.90;;;;;;4165821;28;20398;-83
2023/03/06 00:20:47;;;;;;;2.67;0.40;;;2.40;99.90;;;;;;4167161;28;20037;-82
2023/03/06 00:22:48;;;;;;;0.50;0.22;;;2.60;99.90;;;;;;4167119;28;20045;-82
2023/03/06 00:24:52;;;;;;;0.35;0.30;;;2.50;99.90;;;;;;4148920;28;20054;-82
2023/03/06 00:26:53;;;;;;;0.82;0.32;;;2.50;99.90;;;;;;4183344;28;20037;-83
2023/03/06 00:28:54;;;;;;;0.60;0.45;;;2.60;99.90;;;;;;4183708;28;20128;-83
2023/03/06 00:30:55;;;;;;;1.33;0.40;;;2.50;99.90;;;;;;4149138;28;20434;-83
2023/03/06 00:32:55;;;;;;;0.40;0.20;;;2.60;99.90;;;;;;4149465;28;20533;-82
2023/03/06 00:34:57;;;;;;;2.15;0.40;;;2.40;99.90;;;;;;4183022;28;20049;-82
2023/03/06 00:36:59;;;;;;;1.23;0.40;;;2.40;99.90;;;;;;4149397;28;20053;-82
2023/03/06 00:39:01;;;;;;;1.75;0.40;;;2.50;99.90;;;;;;4184913;28;20070;-84
2023/03/06 00:41:11;;;;;;;0.77;0.30;;;2.30;99.90;;;;;;4150733;28;20049;-83
2023/03/06 00:43:15;;;;;;;0.70;0.38;;;1.50;99.90;;;;;;4184011;28;20094;-83
2023/03/06 00:45:16;;;;;;;0.80;0.50;;;2.30;99.90;;;;;;4167623;28;20526;-84
2023/03/06 00:47:17;;;;;;;1.25;0.30;;;2.30;99.90;;;;;;4185323;28;20037;-84
2023/03/06 00:49:18;;;;;;;1.52;0.50;;;2.30;99.90;;;;;;4185072;28;20113;-84
2023/03/06 00:51:21;;;;;;;2.28;0.43;;;2.30;99.90;;;;;;4188175;28;20104;-82
2023/03/06 00:53:21;;;;;;;1.83;0.60;;;2.30;99.90;;;;;;4170010;28;20044;-83
2023/03/06 00:55:22;;;;;;;0.22;0.20;;;2.30;99.90;;;;;;4186249;28;20033;-84
2023/03/06 00:57:23;;;;;;;1.73;0.65;;;2.30;99.90;;;;;;4186372;28;20021;-84
2023/03/06 00:59:24;;;;;;;1.67;0.73;;;3.20;99.90;;;;;;4203557;28;20025;-85
2023/03/06 01:01:25;;;;;;;0.73;0.50;;;2.30;99.90;;;;;;4203344;28;20025;-84
2023/03/06 01:03:26;;;;;;;2.38;0.40;;;3.00;99.90;;;;;;4186143;28;20064;-83
2023/03/06 01:05:29;;;;;;;0.47;0.32;;;2.40;99.90;;;;;;4169488;28;20026;-83
2023/03/06 01:07:32;;;;;;;1.58;0.60;;;2.20;99.90;;;;;;4169435;28;20042;-83
2023/03/06 01:09:40;;;;;;;2.63;0.40;;;2.20;99.90;;;;;;4170102;28;20056;-84
2023/03/06 01:11:40;;;;;;;2.58;0.82;;;2.50;99.90;;;;;;4160488;28;20085;-84
2023/03/06 01:13:43;;;;;;;0.68;0.38;;;3.30;99.90;;;;;;4199213;28;20582;-84
2023/03/06 01:15:44;;;;;;;1.50;0.57;;;3.00;99.90;;;;;;4184695;28;20044;-84
2023/03/06 01:17:45;;;;;;;1.75;0.43;;;2.60;99.90;;;;;;4184643;28;20117;-84
2023/03/06 01:19:47;;;;;;;2.17;0.50;;;2.20;99.90;;;;;;4184327;28;20424;-84
2023/03/06 01:21:49;;;;;;;1.30;0.40;;;3.20;99.90;;;;;;4166499;28;20053;-84
2023/03/06 01:23:50;;;;;;;2.50;0.50;;;3.30;99.90;;;;;;4150078;28;20088;-84
2023/03/06 01:25:53;;;;;;;1.00;0.70;;;2.20;99.90;;;;;;4183411;28;20057;-84
2023/03/06 01:27:53;;;;;;;2.08;0.47;;;2.80;99.90;;;;;;4166311;28;20496;-84
2023/03/06 01:29:54;;;;;;;1.13;0.50;;;2.60;99.90;;;;;;4148962;28;20048;-84
2023/03/06 01:31:56;;;;;;;2.60;0.60;;;2.20;99.90;;;;;;4182772;28;20033;-84
2023/03/06 01:33:57;;;;;;;2.70;0.60;;;2.20;99.90;;;;;;4183696;28;20120;-84
2023/03/06 01:35:59;;;;;;;2.20;0.82;;;3.10;99.90;;;;;;4165206;28;20041;-83
2023/03/06 01:38:00;;;;;;;0.93;0.40;;;2.20;99.90;;;;;;4182690;28;20041;-84
2023/03/06 01:40:01;;;;;;;1.95;0.50;;;2.30;99.90;;;;;;4182980;28;20076;-83
2023/03/06 01:42:02;;;;;;;0.90;0.50;;;2.60;99.90;;;;;;4182632;28;20451;-83
2023/03/06 01:44:03;;;;;;;0.45;0.43;;;2.50;99.90;;;;;;4182782;28;20052;-83
2023/03/06 01:46:27;;;;;;;2.50;0.57;;;2.30;99.90;;;;;;4182177;28;20037;-83
2023/03/06 01:48:29;;;;;;;0.60;0.35;;;2.80;99.90;;;;;;4171887;28;20448;-83
2023/03/06 01:50:30;;;;;;;1.05;0.60;;;2.40;99.90;;;;;;4153843;28;20049;-83
2023/03/06 01:52:49;;;;;;;0.45;0.40;;;2.40;99.90;;;;;;4201993;28;20056;-83
2023/03/06 01:55:01;;;;;;;;;;;3.50;99.90;;;;;;4168322;28;20041;-83
2023/03/06 01:57:08;;;;;;;0.50;0.45;;;2.40;99.90;;;;;;4201547;28;19915;-83
2023/03/06 01:59:10;;;;;;;1.88;0.47;;;3.50;99.90;;;;;;4200455;28;20053;-83
2023/03/06 02:01:13;;;;;;;3.10;0.80;;;2.40;99.90;;;;;;4201573;28;20034;-84
2023/03/06 02:03:22;;;;;;;0.40;0.40;;;2.40;99.90;;;;;;4168315;28;20052;-84
2023/03/06 02:05:23;;;;;;;;;;;2.40;99.90;;;;;;4202490;28;20032;-83
2023/03/06 02:07:24;;;;;;;2.22;0.40;;;2.30;99.90;;;;;;4201578;28;19979;-83
2023/03/06 02:09:28;;;;;;;0.32;0.28;;;2.70;99.90;;;;;;4168265;28;20036;-82
2023/03/06 02:11:29;;;;;;;0.95;0.47;;;2.40;99.90;;;;;;4201259;28;20057;-83
2023/03/06 02:13:30;;;;;;;1.10;0.30;;;1.70;99.90;;;;;;4189246;28;20409;-83
2023/03/06 02:15:32;;;;;;;1.98;0.40;;;2.30;99.90;;;;;;4148396;28;20050;-83
2023/03/06 02:17:35;;;;;;;0.70;0.32;;;2.30;99.90;;;;;;4165049;28;20115;-84
2023/03/06 02:20:01;;;;;;;0.40;0.40;;;2.30;99.90;;;;;;4182070;28;20041;-84
2023/03/06 02:22:03;;;;;;;0.47;0.30;;;2.20;99.90;;;;;;4164296;28;20053;-84
2023/03/06 02:26:28;;;;;;;6.22;0.75;;;2.20;99.90;;;;;;4256193;27;1297279;-84
2023/03/06 02:28:29;;;;;;;1.20;0.47;;;2.40;99.90;;;;;;4264336;27;20046;-83
2023/03/06 02:30:30;;;;;;;0.40;0.40;;;2.20;99.90;;;;;;4281776;27;20039;-83
2023/03/06 02:32:31;;;;;;;0.40;0.40;;;2.20;99.90;;;;;;4246000;28;20412;-83
2023/03/06 02:34:37;;;;;;;0.82;0.47;;;3.10;99.90;;;;;;4257612;27;20108;-83
2023/03/06 02:36:44;;;;;;;1.33;0.30;;;2.20;99.90;;;;;;4245900;28;20043;-83
2023/03/06 02:38:49;;;;;;;2.20;0.65;;;3.30;99.90;;;;;;4263984;27;20110;-83
2023/03/06 02:40:52;;;;;;;0.35;0.35;;;2.20;99.90;;;;;;4264234;27;20054;-83
2023/03/06 02:42:56;;;;;;;0.47;0.30;;;2.20;99.90;;;;;;4264068;27;20082;-83
2023/03/06 02:45:01;;;;;;;0.55;0.28;;;3.00;99.90;;;;;;4263679;27;20498;-84
2023/03/06 02:47:01;;;;;;;0.22;0.20;;;1.30;99.90;;;;;;4264428;27;20474;-83
2023/03/06 02:49:02;;;;;;;0.65;0.20;;;2.10;99.90;;;;;;4263565;27;20090;-83
2023/03/06 02:51:03;;;;;;;0.35;0.20;;;2.10;99.90;;;;;;4264435;27;20054;-83
2023/03/06 02:53:05;;;;;;;0.57;0.13;;;2.10;99.90;;;;;;4264298;27;20051;-83
2023/03/06 02:55:07;;;;;;;0.50;0.20;;;3.30;99.90;;;;;;4263950;27;20078;-83
2023/03/06 02:57:08;;;;;;;0.30;0.30;;;2.00;99.90;;;;;;4263888;27;20046;-84
2023/03/06 02:59:11;;;;;;;0.55;0.25;;;2.90;99.90;;;;;;4245525;28;20526;-83
2023/03/06 03:01:12;;;;;;;1.70;0.50;;;2.00;99.90;;;;;;4263919;27;20510;-83
2023/03/06 03:03:13;;;;;;;0.40;0.30;;;2.60;99.90;;;;;;4263376;27;20096;-83
2023/03/06 03:05:14;;;;;;;0.20;0.20;;;2.80;99.90;;;;;;4264064;27;20043;-83
2023/03/06 03:07:16;;;;;;;0.95;0.50;;;2.20;99.90;;;;;;4264077;27;20456;-83
2023/03/06 03:09:17;;;;;;;0.93;0.40;;;3.00;99.90;;;;;;4263760;27;20192;-83
2023/03/06 03:11:20;;;;;;;0.47;0.30;;;3.40;99.90;;;;;;4264129;27;20098;-83
2023/03/06 03:13:22;;;;;;;1.85;0.47;;;3.00;99.90;;;;;;4263692;27;20078;-83
2023/03/06 03:15:23;;;;;;;0.52;0.30;;;2.10;99.90;;;;;;4263503;27;20122;-83
2023/03/06 03:17:24;;;;;;;0.65;0.40;;;2.60;99.90;;;;;;4263714;27;20088;-83
2023/03/06 03:19:25;;;;;;;3.22;0.40;;;3.00;99.90;;;;;;4263631;27;20443;-83
2023/03/06 03:21:27;;;;;;;0.60;0.40;;;2.80;99.90;;;;;;4264194;27;20104;-83
2023/03/06 03:23:28;;;;;;;0.70;0.30;;;1.90;99.90;;;;;;4244918;28;20098;-83
2023/03/06 03:25:29;;;;;;;0.95;0.50;;;1.90;99.90;;;;;;4244735;27;20498;-83
2023/03/06 03:27:32;;;;;;;3.25;1.60;;;2.70;99.90;;;;;;4246418;28;20043;-83
2023/03/06 03:29:33;;;;;;;0.98;0.60;;;2.90;99.90;;;;;;4246549;27;20119;-83
2023/03/06 03:31:33;;;;;;;0.90;0.57;;;1.80;99.90;;;;;;4228277;28;20511;-83
2023/03/06 03:33:34;;;;;;;0.63;0.60;;;2.10;99.90;;;;;;4245095;28;20047;-83
2023/03/06 03:35:35;;;;;;;1.73;0.38;;;2.00;99.90;;;;;;4244744;27;20062;-83
2023/03/06 03:37:37;;;;;;;3.50;0.70;;;2.30;99.90;;;;;;4235306;28;20535;-83
2023/03/06 03:39:38;;;;;;;1.20;0.40;;;1.80;99.90;;;;;;4233682;28;20560;-83
2023/03/06 03:41:39;;;;;;;1.13;0.60;;;2.20;99.90;;;;;;4234992;28;20059;-83
2023/03/06 03:43:41;;;;;;;1.40;0.60;;;1.70;99.90;;;;;;4216294;28;20052;-83
2023/03/06 03:45:41;;;;;;;1.25;0.60;;;2.90;99.90;;;;;;4216728;28;20040;-83
2023/03/06 03:47:42;;;;;;;2.55;0.43;;;2.40;99.90;;;;;;4216894;28;20052;-83
2023/03/06 03:49:43;;;;;;;1.50;0.70;;;1.70;99.90;;;;;;4234684;28;20048;-83
2023/03/06 03:51:46;;;;;;;2.40;1.02;;;1.70;99.90;;;;;;4234609;28;20044;-83
2023/03/06 03:53:48;;;;;;;1.88;0.80;;;2.30;99.90;;;;;;4234820;28;20402;-83
2023/03/06 03:55:48;;;;;;;2.05;0.77;;;1.70;99.90;;;;;;4232234;28;20096;-83
2023/03/06 03:57:49;;;;;;;1.50;0.60;;;0.70;99.90;;;;;;4234006;28;20043;-83
2023/03/06 03:59:51;;;;;;;1.75;0.60;;;1.70;99.90;;;;;;4234801;28;20071;-83
2023/03/06 04:01:54;;;;;;;1.98;0.65;;;1.70;99.90;;;;;;4216360;28;20048;-83
2023/03/06 04:03:56;;;;;;;1.60;0.73;;;2.50;99.90;;;;;;4234601;28;20040;-83
2023/03/06 04:05:59;;;;;;;1.20;0.50;;;1.60;99.90;;;;;;4234649;28;20039;-84
2023/03/06 04:08:02;;;;;;;1.83;0.60;;;2.80;99.90;;;;;;4234555;28;20376;-83
2023/03/06 04:10:03;;;;;;;3.63;0.93;;;2.40;99.90;;;;;;4234389;28;20050;-83
2023/03/06 04:12:05;;;;;;;1.48;0.68;;;1.60;99.90;;;;;;4233797;28;20047;-83
2023/03/06 04:14:07;;;;;;;1.73;0.73;;;1.60;99.90;;;;;;4233630;28;20094;-83
2023/03/06 04:16:08;;;;;;;2.85;0.85;;;1.60;99.90;;;;;;4233610;28;20063;-83
2023/03/06 04:18:10;;;;;;;1.17;0.70;;;1.60;99.90;;;;;;4234608;28;20040;-83
2023/03/06 04:20:11;;;;;;;2.50;0.80;;;1.50;99.90;;;;;;4233051;28;20048;-83
2023/03/06 04:22:11;;;;;;;2.25;0.75;;;1.50;99.90;;;;;;4234063;28;20412;-83
2023/03/06 04:24:13;;;;;;;1.33;0.70;;;1.50;99.90;;;;;;4234409;28;20047;-83
2023/03/06 04:26:14;;;;;;;2.47;0.82;;;0.80;99.90;;;;;;4215450;28;20052;-83
2023/03/06 04:28:16;;;;;;;2.10;0.77;;;1.50;99.90;;;;;;4233874;28;20431;-83
2023/03/06 04:30:17;;;;;;;1.67;0.80;;;1.50;99.90;;;;;;4233082;28;20055;-83
2023/03/06 04:32:18;;;;;;;1.00;0.60;;;1.50;99.90;;;;;;4233690;28;20028;-83
2023/03/06 04:34:20;;;;;;;4.25;0.98;;;1.50;99.90;;;;;;4233081;28;20114;-83
2023/03/06 04:36:30;;;;;;;3.97;1.05;;;1.60;99.90;;;;;;4232786;28;20039;-83
2023/03/06 04:38:32;;;;;;;1.48;0.60;;;1.60;99.90;;;;;;4234070;28;20039;-83
2023/03/06 04:40:35;;;;;;;1.80;1.02;;;1.60;99.90;;;;;;4232873;28;20043;-83
2023/03/06 04:42:35;;;;;;;2.10;0.70;;;1.70;99.90;;;;;;4233945;27;20043;-83
2023/03/06 04:44:36;;;;;;;2.50;0.90;;;1.70;99.90;;;;;;4232480;28;20054;-83
2023/03/06 04:46:40;;;;;;;2.88;0.70;;;2.80;99.90;;;;;;4233700;28;20115;-83
2023/03/06 04:48:41;;;;;;;1.63;0.80;;;2.30;99.90;;;;;;4232816;28;20040;-83
2023/03/06 04:50:43;;;;;;;1.65;1.10;;;1.70;99.90;;;;;;4216086;28;20060;-84
2023/03/06 04:52:44;;;;;;;1.77;0.70;;;2.70;99.90;;;;;;4215524;28;20059;-83
2023/03/06 04:54:45;;;;;;;2.05;0.90;;;1.90;99.90;;;;;;4233742;28;20043;-83
2023/03/06 04:56:46;;;;;;;1.85;0.55;;;2.60;99.90;;;;;;4232764;28;20135;-83
2023/03/06 04:58:49;;;;;;;3.70;1.10;;;2.30;99.90;;;;;;4233424;28;20046;-83
2023/03/06 05:00:52;;;;;;;2.53;0.80;;;2.90;99.90;;;;;;4215665;28;20043;-83
2023/03/06 05:02:52;;;;;;;2.85;1.58;;;2.90;99.90;;;;;;4233390;28;20048;-83
2023/03/06 05:04:55;;;;;;;2.63;0.80;;;3.00;99.90;;;;;;4232553;28;20035;-83
2023/03/06 05:06:56;;;;;;;1.70;1.20;;;1.80;99.90;;;;;;4232530;28;20473;-83
2023/03/06 05:08:57;;;;;;;1.90;0.85;;;2.90;99.90;;;;;;4215606;28;20056;-83
2023/03/06 05:11:00;;;;;;;1.15;0.70;;;2.90;99.90;;;;;;4232308;28;20046;-83
2023/03/06 05:13:02;;;;;;;2.88;0.82;;;2.60;99.90;;;;;;4233520;27;20067;-83
2023/03/06 05:15:04;;;;;;;4.50;0.90;;;2.40;99.90;;;;;;4233186;28;20103;-83
2023/03/06 05:17:05;;;;;;;2.28;0.60;;;1.50;99.90;;;;;;4233533;27;20502;-83
2023/03/06 05:19:07;;;;;;;1.88;0.85;;;1.20;99.90;;;;;;4215358;28;20040;-83
2023/03/06 05:21:09;;;;;;;2.25;1.10;;;1.50;99.90;;;;;;4214996;28;20055;-84
2023/03/06 05:23:09;;;;;;;2.30;1.13;;;2.50;99.90;;;;;;4232476;28;20043;-84
2023/03/06 05:25:10;;;;;;;3.22;1.27;;;2.60;99.90;;;;;;4203561;28;20586;-84
2023/03/06 05:27:11;;;;;;;3.22;1.25;;;2.30;99.90;;;;;;4216718;28;20443;-82
2023/03/06 05:29:12;;;;;;;2.92;0.93;;;2.50;99.90;;;;;;4215396;28;20032;-82
2023/03/06 05:31:13;;;;;;;2.65;0.98;;;2.30;99.90;;;;;;4225734;28;20047;-82
2023/03/06 05:33:14;;;;;;;1.10;0.80;;;1.50;99.90;;;;;;4218368;28;20108;-82
2023/03/06 05:35:17;;;;;;;4.63;1.05;;;1.40;99.90;;;;;;4214829;28;20055;-82
2023/03/06 05:37:18;;;;;;;1.83;0.85;;;1.40;99.90;;;;;;4198098;28;20048;-82
2023/03/06 05:39:20;;;;;;;3.17;0.95;;;1.50;99.90;;;;;;4215125;28;20080;-82
2023/03/06 05:41:22;;;;;;;5.22;1.08;;;2.60;99.90;;;;;;4215432;28;20055;-82
2023/03/06 05:43:23;;;;;;;2.67;1.30;;;1.50;99.90;;;;;;4216073;28;20053;-82
2023/03/06 05:45:24;;;;;;;2.70;0.95;;;1.50;99.90;;;;;;4215711;28;20476;-82
2023/03/06 05:47:25;;;;;;;3.75;1.38;;;1.60;99.90;;;;;;4215910;28;20044;-82
2023/03/06 05:49:30;;;;;;;3.90;1.33;;;1.60;99.90;;;;;;4214551;28;20552;-82
2023/03/06 05:51:31;;;;;;;2.58;1.42;;;1.60;99.90;;;;;;4215039;28;20500;-82
2023/03/06 05:53:38;;;;;;;2.95;1.23;;;1.60;99.90;;;;;;4225194;28;20060;-81
2023/03/06 05:55:39;;;;;;;4.25;0.93;;;2.40;99.90;;;;;;4215125;28;20044;-82
2023/03/06 05:57:40;;;;;;;3.58;1.90;;;1.60;99.90;;;;;;4214533;28;20054;-81
2023/03/06 05:59:40;;;;;;;5.03;1.70;;;2.00;99.90;;;;;;4214520;28;20492;-82
2023/03/06 06:01:47;;;;;;;3.15;1.50;;;1.90;99.90;;;;;;4214299;28;20052;-82
2023/03/06 06:03:49;;;;;;;5.53;1.63;;;1.50;99.90;;;;;;4214945;28;20047;-82
2023/03/06 06:05:51;;;;;;;2.40;1.15;;;1.80;99.90;;;;;;4215198;28;20048;-81
2023/03/06 06:07:52;;;;;;;3.95;1.40;;;1.40;99.90;;;;;;4215272;28;20488;-82
2023/03/06 06:09:53;;;;;;;7.07;1.40;;;1.40;99.90;;;;;;4216098;28;20097;-82
2023/03/06 06:11:56;;;;;;;3.33;1.55;;;1.30;99.90;;;;;;4216050;28;20082;-82
2023/03/06 06:13:58;;;;;;;2.47;1.40;;;1.30;99.90;;;;;;4216878;28;20511;-82
2023/03/06 06:16:14;;;;;;;5.15;1.52;;;2.10;99.90;;;;;;4216958;28;20044;-82
2023/03/06 06:18:16;;;;;;;5.72;2.33;;;1.30;99.90;;;;;;4217173;28;20044;-82
2023/03/06 06:20:17;;;;;;;4.05;1.35;;;1.30;99.90;;;;;;4216695;28;20032;-82
2023/03/06 06:22:19;;;;;;;6.68;2.17;;;1.30;99.90;;;;;;4215654;28;20503;-82
2023/03/06 06:24:22;;;;;;;4.55;2.13;;;1.20;99.90;;;;;;4217252;28;20040;-82
2023/03/06 06:26:23;;;;;;;7.20;1.88;;;1.20;99.90;;;;;;4228716;28;20069;-82
2023/03/06 06:28:27;;;;;;;2.95;1.63;;;1.30;99.90;;;;;;4215416;28;20043;-82
2023/03/06 06:30:28;;;;;;;5.13;1.45;;;2.30;99.90;;;;;;4233285;28;20044;-82
2023/03/06 06:32:29;;;;;;;6.30;2.75;;;2.10;99.90;;;;;;4198777;28;20084;-82
2023/03/06 06:34:30;;;;;;;5.07;1.60;;;2.00;99.90;;;;;;4215725;28;20127;-82
2023/03/06 06:36:33;;;;;;;5.60;2.10;;;1.10;99.90;;;;;;4199369;28;20044;-82
2023/03/06 06:38:35;;;;;;;3.88;1.90;;;2.20;99.90;;;;;;4233761;28;20051;-82
2023/03/06 06:40:37;;;;;;;5.78;2.67;;;1.10;99.90;;;;;;4233713;28;20036;-82
2023/03/06 06:42:40;;;;;;;9.50;2.92;;;1.10;99.90;;;;;;4233547;28;20036;-82
2023/03/06 06:44:43;;;;;;;7.35;2.72;;;1.10;99.90;;;;;;4233820;28;20480;-82
2023/03/06 06:46:45;;;;;;;7.07;1.90;;;1.90;99.90;;;;;;4199386;28;20124;-82
2023/03/06 06:48:53;;;;;;;8.50;2.38;;;1.10;99.90;;;;;;4233657;28;20491;-81
2023/03/06 06:50:59;;;;;;;5.55;1.95;;;2.20;99.90;;;;;;4216077;28;20103;-81
2023/03/06 06:53:01;;;;;;;4.10;1.77;;;1.50;99.90;;;;;;4210901;28;20051;-83
2023/03/06 06:55:02;;;;;;;5.00;2.05;;;1.10;99.90;;;;;;4201969;28;20041;-83
2023/03/06 06:57:03;;;;;;;6.00;2.17;;;1.10;99.90;;;;;;4214040;28;20109;-83
2023/03/06 06:59:06;;;;;;;4.90;1.65;;;1.10;99.90;;;;;;4214896;28;20080;-82
2023/03/06 07:01:10;;;;;;;10.13;3.50;;;1.70;99.90;;;;;;4232670;28;20032;-82
2023/03/06 07:03:12;;;;;;;4.65;2.22;;;1.30;99.90;;;;;;4214596;28;20057;-82
2023/03/06 07:05:13;;;;;;;7.00;2.15;;;2.50;99.90;;;;;;4197273;28;20489;-82
2023/03/06 07:07:15;;;;;;;3.58;2.00;;;1.90;99.90;;;;;;4232638;28;20042;-82
2023/03/06 07:09:16;;;;;;;5.32;2.25;;;1.30;99.90;;;;;;4214773;28;20404;-82
2023/03/06 07:11:18;;;;;;;4.43;2.28;;;1.80;99.90;;;;;;4215199;28;20052;-82
2023/03/06 07:13:20;;;;;;;3.25;1.95;;;1.40;99.90;;;;;;4252532;27;20042;-82
2023/03/06 07:15:25;;;;;;;5.55;2.70;;;1.50;99.90;;;;;;4254321;27;20043;-82
2023/03/06 07:17:27;;;;;;;4.68;2.67;;;1.80;99.90;;;;;;4254515;27;20074;-82
2023/03/06 07:19:28;;;;;;;4.22;2.15;;;3.20;99.90;;;;;;4219271;28;20054;-82
2023/03/06 07:21:28;;;;;;;3.38;2.10;;;3.50;99.90;;;;;;4254808;27;20093;-82
2023/03/06 07:23:30;;;;;;;4.78;2.00;;;2.20;99.90;;;;;;4219374;28;20178;-82
2023/03/06 07:25:31;;;;;;;5.63;2.33;;;2.70;99.90;;;;;;4255505;27;20448;-83
2023/03/06 07:27:32;;;;;;;4.90;2.28;;;3.10;99.90;;;;;;4238966;28;20052;-82
2023/03/06 07:29:34;;;;;;;5.82;2.60;;;2.40;99.90;;;;;;4268875;27;20053;-83
2023/03/06 07:31:35;;;;;;;4.50;2.13;;;3.20;99.90;;;;;;4266754;27;20088;-83
2023/03/06 07:33:37;;;;;;;4.63;1.65;;;3.30;99.90;;;;;;4253457;27;20487;-83
2023/03/06 07:35:40;;;;;;;5.35;2.15;;;2.70;99.90;;;;;;4243640;28;20023;-83
2023/03/06 07:37:41;;;;;;;5.03;2.10;;;3.20;99.90;;;;;;4251774;28;20065;-83
2023/03/06 07:39:43;;;;;;;5.63;2.10;;;4.00;99.90;;;;;;4235229;28;20112;-83
2023/03/06 07:41:44;;;;;;;6.07;2.50;;;4.00;99.90;;;;;;4263695;27;20399;-82
2023/03/06 07:43:45;;;;;;;2.53;1.77;;;3.30;99.90;;;;;;4255823;27;20045;-82
2023/03/06 07:45:46;;;;;;;4.50;2.08;;;3.30;99.90;;;;;;4254279;27;20471;-82
2023/03/06 07:47:49;;;;;;;2.80;2.00;;;3.50;99.90;;;;;;4236080;28;20047;-82
2023/03/06 07:49:54;;;;;;;3.15;2.20;;;3.60;99.90;;;;;;4238678;27;20408;-82
2023/03/06 07:51:55;;;;;;;2.35;1.70;;;3.80;99.90;;;;;;4217886;28;20040;-82
2023/03/06 07:53:57;;;;;;;5.60;2.00;;;4.00;99.90;;;;;;4235048;28;20126;-82
2023/03/06 07:55:58;;;;;;;3.00;1.83;;;4.20;99.90;;;;;;4200675;28;20053;-82
2023/03/06 07:57:59;;;;;;;3.60;1.33;;;5.00;99.90;;;;;;4200176;28;20044;-82
2023/03/06 08:00:01;;;;;;;3.75;1.48;;;4.40;99.90;;;;;;4234661;28;20127;-83
2023/03/06 08:02:02;;;;;;;4.43;1.40;;;4.80;99.90;;;;;;4215811;28;20047;-83
2023/03/06 08:04:04;;;;;;;2.17;1.10;;;5.40;99.90;;;;;;4233489;28;20424;-83
2023/03/06 08:06:13;;;;;;;2.33;1.17;;;5.80;99.90;;;;;;4215309;28;20036;-83
2023/03/06 08:08:16;;;;;;;;;;;6.10;99.90;;;;;;4215684;28;20511;-83
2023/03/06 08:10:17;;;;;;;3.40;1.20;;;6.50;99.90;;;;;;4214538;28;19927;-83
2023/03/06 08:12:18;;;;;;;4.47;1.33;;;6.60;99.90;;;;;;4237700;27;20044;-83
2023/03/06 08:14:21;;;;;;;4.22;0.85;;;6.20;99.90;;;;;;4237669;27;20110;-83
2023/03/06 08:16:24;;;;;;;1.40;0.80;;;6.80;99.90;;;;;;4214960;28;20058;-83
2023/03/06 08:18:25;;;;;;;2.45;0.77;;;6.90;99.90;;;;;;4249162;27;20082;-83
2023/03/06 08:20:26;;;;;;;1.90;0.80;;;7.00;99.90;;;;;;4249611;27;20048;-83
2023/03/06 08:22:27;;;;;;;1.83;0.60;;;6.70;99.90;;;;;;4249412;27;20039;-83
2023/03/06 08:24:27;;;;;;;1.33;0.80;;;6.10;99.90;;;;;;4214363;28;20164;-83
2023/03/06 08:26:30;;;;;;;2.10;0.80;;;5.60;99.90;;;;;;4249256;27;20055;-83
2023/03/06 08:28:33;;;;;;;2.95;0.50;;;5.10;99.90;;;;;;4214382;28;20066;-83
2023/03/06 08:30:33;;;;;;;1.38;0.85;;;4.70;99.90;;;;;;4249542;27;20380;-82
2023/03/06 08:32:36;;;;;;;3.13;0.70;;;4.90;99.90;;;;;;4214674;28;20051;-84
2023/03/06 08:34:38;;;;;;;1.33;0.70;;;4.70;99.90;;;;;;4215228;28;20082;-83
2023/03/06 08:36:39;;;;;;;2.75;0.98;;;5.30;99.90;;;;;;4214564;28;20115;-84
2023/03/06 08:38:40;;;;;;;1.67;0.80;;;5.30;99.90;;;;;;4249503;27;20499;-84
2023/03/06 08:40:41;;;;;;;5.28;1.17;;;5.30;99.90;;;;;;4226284;28;20051;-83
2023/03/06 08:42:42;;;;;;;3.13;1.63;;;5.00;99.90;;;;;;4232999;28;20040;-84
2023/03/06 08:44:43;;;;;;;3.72;0.98;;;5.30;99.90;;;;;;4245091;27;20031;-83
2023/03/06 08:46:44;;;;;;;5.28;1.25;;;5.30;99.90;;;;;;4248836;27;20039;-83
2023/03/06 08:48:48;;;;;;;1.75;0.75;;;6.60;99.90;;;;;;4214649;28;20468;-84
2023/03/06 08:50:49;;;;;;;2.25;0.90;;;7.40;99.90;;;;;;4230891;28;20086;-84
2023/03/06 08:52:50;;;;;;;1.80;0.73;;;7.90;99.90;;;;;;4214002;28;20160;-84
2023/03/06 08:54:51;;;;;;;1.75;0.88;;;8.30;99.90;;;;;;4249167;27;20495;-84
2023/03/06 08:56:52;;;;;;;1.73;0.90;;;8.60;99.90;;;;;;4230523;28;20081;-84
2023/03/06 08:58:54;;;;;;;2.55;0.80;;;9.10;99.90;;;;;;4249137;27;20086;-84
2023/03/06 09:00:55;;;;;;;3.58;1.38;;;9.40;99.90;;;;;;4230746;28;20062;-84
2023/03/06 09:02:56;;;;;;;2.20;1.30;;;9.30;99.90;;;;;;4230395;28;20522;-84
2023/03/06 09:04:58;;;;;;;1.63;0.60;;;9.70;99.90;;;;;;4249634;27;20421;-85
2023/03/06 09:07:00;;;;;;;3.97;0.95;;;9.60;99.90;;;;;;4230380;28;20048;-84
2023/03/06 09:09:01;;;;;;;1.70;0.80;;;9.50;99.90;;;;;;4213449;28;20570;-85
2023/03/06 09:11:01;;;;;;;2.60;0.80;;;9.60;99.90;;;;;;4248804;27;20047;-85
2023/03/06 09:13:02;;;;;;;4.10;1.05;;;9.90;99.90;;;;;;4213424;28;20475;-83
2023/03/06 09:15:04;;;;;;;3.22;0.60;;;10.20;99.90;;;;;;4248692;27;20046;-83
2023/03/06 09:17:05;;;;;;;1.40;0.50;;;10.30;99.90;;;;;;4230198;28;20400;-83
2023/03/06 09:19:06;;;;;;;2.67;0.70;;;10.10;99.90;;;;;;4213101;28;20142;-85
2023/03/06 09:21:08;;;;;;;3.17;0.75;;;10.10;99.90;;;;;;4248653;27;20047;-85
2023/03/06 09:23:09;;;;;;;1.35;0.65;;;10.40;99.90;;;;;;4230360;28;20056;-85
2023/03/06 09:25:12;;;;;;;2.50;0.80;;;11.00;99.90;;;;;;4230325;28;20052;-85
2023/03/06 09:27:13;;;;;;;3.00;0.80;;;11.20;99.90;;;;;;4209442;28;20109;-84
2023/03/06 09:29:15;;;;;;;3.03;0.63;;;11.20;99.90;;;;;;4224358;28;20318;-85
2023/03/06 09:31:18;;;;;;;5.97;1.13;;;11.10;99.90;;;;;;4229790;28;20165;-82
2023/03/06 09:33:19;;;;;;;3.00;0.70;;;10.90;99.90;;;;;;4229937;28;20115;-85
2023/03/06 09:35:20;;;;;;;2.40;0.60;;;10.70;99.90;;;;;;4212527;28;20093;-85
2023/03/06 09:37:33;;;;;;;3.20;0.70;;;10.40;99.90;;;;;;4248321;27;20031;-85
2023/03/06 09:39:37;;;;;;;2.97;0.80;;;10.00;99.90;;;;;;4212544;28;20166;-83
2023/03/06 09:41:48;;;;;;;2.38;0.70;;;9.50;99.90;;;;;;4213964;28;20082;-83
2023/03/06 09:44:13;;;;;;;1.77;0.60;;;8.60;99.90;;;;;;4196587;28;20064;-84
2023/03/06 09:46:28;;;;;;;1.65;0.57;;;9.10;99.90;;;;;;4196179;28;20040;-84
2023/03/06 09:48:49;;;;;;;7.30;1.23;;;9.20;99.90;;;;;;4213274;28;20052;-84
2023/03/06 09:50:57;;;;;;;3.00;0.55;;;9.50;99.90;;;;;;4213426;28;20059;-84
2023/03/06 09:53:36;;;;;;;8.13;0.90;;;9.60;99.90;;;;;;4196008;28;20416;-84
2023/03/06 09:55:39;;;;;;;2.42;1.20;;;9.60;99.90;;;;;;4195858;28;20045;-84
2023/03/06 09:58:05;;;;;;;2.70;1.00;;;9.80;99.90;;;;;;4230952;28;20043;-84
2023/03/06 10:00:19;;;;;;;3.20;0.93;;;10.10;99.90;;;;;;4216691;28;20074;-84
2023/03/06 10:02:42;;;;;;;1.95;0.75;;;10.20;99.90;;;;;;4229575;28;20043;-84
2023/03/06 10:04:48;;;;;;;2.85;0.38;;;10.20;99.90;;;;;;4196002;28;20054;-84
2023/03/06 10:06:55;;;;;;;1.42;0.30;;;10.20;99.90;;;;;;4212369;28;20492;-83
2023/03/06 10:09:04;;;;;;;4.50;0.95;;;10.20;99.90;;;;;;4196288;28;20135;-83
2023/03/06 10:11:09;;;;;;;1.75;0.50;;;10.30;99.90;;;;;;4230328;28;20039;-83
2023/03/06 10:13:25;;;;;;;4.65;0.57;;;10.40;99.90;;;;;;4229475;28;20504;-83
2023/03/06 10:15:34;;;;;;;2.38;0.90;;;10.60;99.90;;;;;;4229739;28;20051;-83
2023/03/06 10:17:37;;;;;;;;;;;10.60;99.90;;;;;;4231269;28;20066;-83
2023/03/06 10:19:41;;;;;;;3.25;0.52;;;10.80;99.90;;;;;;4212545;28;20403;-83
2023/03/06 10:21:56;;;;;;;1.20;0.45;;;10.90;99.90;;;;;;4232911;28;20066;-83
2023/03/06 10:24:13;;;;;;;0.90;0.38;;;11.10;99.90;;;;;;4247134;27;20061;-83
2023/03/06 10:26:41;;;;;;;4.13;0.90;;;11.40;99.90;;;;;;4247733;28;20510;-84
2023/03/06 10:28:48;;;;;;;2.35;0.20;;;11.50;99.90;;;;;;4229446;28;20047;-83
2023/03/06 10:30:59;;;;;;;1.33;0.47;;;11.80;99.90;;;;;;4247595;28;20043;-83
2023/03/06 10:33:20;;;;;;;1.40;0.20;;;11.60;98.70;;;;;;4212461;28;20127;-83
2023/03/06 10:35:27;;;;;;;0.70;0.25;;;11.50;99.10;;;;;;4212398;28;20048;-84
2023/03/06 10:37:28;;;;;;;2.47;0.15;;;11.70;99.90;;;;;;4212679;28;20056;-83
2023/03/06 10:39:29;;;;;;;1.92;0.40;;;12.00;99.90;;;;;;4247166;28;20131;-83
2023/03/06 10:41:34;;;;;;;1.35;0.40;;;12.00;99.50;;;;;;4249249;28;20074;-84
2023/03/06 10:43:40;;;;;;;1.00;0.20;;;11.80;99.60;;;;;;4230454;28;20087;-83
2023/03/06 10:45:49;;;;;;;2.45;0.20;;;11.80;99.80;;;;;;4243680;27;20503;-84
2023/03/06 10:48:10;;;;;;;;;;;11.90;98.80;;;;;;4216727;28;20040;-84
2023/03/06 10:50:29;;;;;;;1.63;0.22;;;12.00;96.20;;;;;;4251667;27;19926;-84
2023/03/06 10:52:32;;;;;;;0.80;0.10;;;12.10;98.00;;;;;;4251887;27;20123;-83